createdAt,value
2023-05-14T00:02:18.249Z,2.58
2023-05-14T00:04:48.225Z,2.63
2023-05-14T00:07:17.195Z,2.80
2023-05-14T00:09:45.915Z,2.70
2023-05-14T00:12:14.985Z,2.67
2023-05-14T00:14:43.316Z,2.67
2023-05-14T00:17:11.907Z,2.45
2023-05-14T00:19:42.333Z,2.83
2023-05-14T00:22:12.921Z,2.70
2023-05-14T00:24:41.406Z,2.70
2023-05-14T00:27:10.546Z,2.53
2023-05-14T00:29:38.867Z,2.70
2023-05-14T00:32:08.265Z,2.80
2023-05-14T00:34:37.190Z,2.50
2023-05-14T00:37:05.661Z,2.65
2023-05-14T00:39:35.600Z,2.67
2023-05-14T00:42:28.288Z,2.50
2023-05-14T00:44:56.611Z,2.30
2023-05-14T00:47:25.945Z,2.40
2023-05-14T00:49:54.720Z,2.25
2023-05-14T00:52:23.281Z,2.22
2023-05-14T00:54:53.631Z,2.40
2023-05-14T00:57:22.191Z,2.50
2023-05-14T00:59:50.960Z,2.10
2023-05-14T01:02:19.723Z,1.92
2023-05-14T01:04:48.157Z,2.38
2023-05-14T01:07:24.590Z,2.30
2023-05-14T01:10:01.753Z,2.50
2023-05-14T01:12:38.396Z,2.65
2023-05-14T01:15:12.606Z,2.75
2023-05-14T01:17:44.764Z,2.20
2023-05-14T01:20:13.955Z,2.35
2023-05-14T01:22:43.965Z,2.20
2023-05-14T01:25:12.334Z,2.28
2023-05-14T01:27:49.312Z,2.17
2023-05-14T01:30:23.848Z,2.20
2023-05-14T01:32:57.139Z,2.05
2023-05-14T01:35:28.406Z,2.05
2023-05-14T01:38:00.820Z,2.00
2023-05-14T01:40:29.547Z,2.13
2023-05-14T01:42:58.593Z,2.28
2023-05-14T01:45:26.966Z,2.30
2023-05-14T01:47:55.160Z,1.70
2023-05-14T01:50:23.633Z,2.17
2023-05-14T01:52:53.612Z,2.28
2023-05-14T01:55:23.861Z,1.92
2023-05-14T01:57:52.324Z,2.10
2023-05-14T02:00:20.930Z,1.90
2023-05-14T02:02:49.112Z,2.00
2023-05-14T02:05:17.363Z,2.03
2023-05-14T02:07:45.499Z,2.20
2023-05-14T02:10:13.719Z,2.05
2023-05-14T02:12:43.275Z,2.03
2023-05-14T02:15:12.055Z,1.90
2023-05-14T02:17:40.273Z,1.70
2023-05-14T02:20:10.450Z,1.45
2023-05-14T02:22:42.305Z,1.63
2023-05-14T02:25:11.438Z,1.30
2023-05-14T02:27:39.538Z,1.55
2023-05-14T02:30:10.612Z,1.60
2023-05-14T02:32:39.400Z,1.40
2023-05-14T02:35:08.593Z,1.60
2023-05-14T02:37:36.801Z,1.52
2023-05-14T02:40:05.435Z,1.45
2023-05-14T02:42:33.525Z,1.33
2023-05-14T02:45:01.654Z,1.50
2023-05-14T02:47:31.250Z,1.35
2023-05-14T02:49:59.538Z,1.20
2023-05-14T02:52:27.818Z,1.58
2023-05-14T02:54:55.979Z,1.40
2023-05-14T02:57:24.028Z,1.42
2023-05-14T02:59:52.207Z,1.50
2023-05-14T03:02:20.839Z,1.42
2023-05-14T03:04:50.661Z,1.50
2023-05-14T03:07:18.821Z,1.40
2023-05-14T03:09:46.979Z,0.80
2023-05-14T03:12:15.235Z,0.90
2023-05-14T03:14:43.327Z,0.98
2023-05-14T03:17:11.774Z,0.80
2023-05-14T03:19:39.982Z,0.80
2023-05-14T03:22:09.588Z,1.00
2023-05-14T03:24:41.063Z,0.80
2023-05-14T03:27:09.235Z,0.80
2023-05-14T03:29:37.392Z,1.05
2023-05-14T03:32:06.252Z,0.90
2023-05-14T03:34:34.458Z,0.90
2023-05-14T03:37:02.972Z,1.20
2023-05-14T03:39:32.534Z,0.90
2023-05-14T03:42:00.694Z,1.27
2023-05-14T03:44:28.799Z,1.00
2023-05-14T03:46:57.253Z,1.10
2023-05-14T03:49:25.417Z,0.90
2023-05-14T03:51:53.525Z,1.10
2023-05-14T03:54:21.670Z,1.00
2023-05-14T03:56:51.155Z,0.98
2023-05-14T03:59:19.356Z,1.10
2023-05-14T04:01:47.478Z,0.90
2023-05-14T04:04:15.758Z,0.82
2023-05-14T04:06:43.974Z,0.90
2023-05-14T04:09:12.143Z,0.90
2023-05-14T04:11:40.244Z,0.90
2023-05-14T04:14:09.759Z,0.80
2023-05-14T04:16:37.891Z,0.90
2023-05-14T04:19:06.139Z,1.08
2023-05-14T04:21:34.360Z,1.10
2023-05-14T04:24:02.529Z,1.00
2023-05-14T04:26:30.615Z,1.00
2023-05-14T04:29:02.868Z,1.00
2023-05-14T04:31:32.894Z,0.70
2023-05-14T04:34:01.138Z,1.00
2023-05-14T04:36:29.214Z,0.82
2023-05-14T04:38:57.269Z,1.05
2023-05-14T04:41:25.548Z,1.00
2023-05-14T04:43:57.216Z,1.00
2023-05-14T04:46:25.411Z,0.98
2023-05-14T04:48:55.043Z,1.27
2023-05-14T04:51:23.202Z,1.00
2023-05-14T04:53:51.384Z,1.20
2023-05-14T04:56:19.473Z,1.00
2023-05-14T04:58:47.658Z,0.90
2023-05-14T05:01:16.277Z,1.08
2023-05-14T05:03:44.583Z,0.90
2023-05-14T05:06:14.196Z,0.88
2023-05-14T05:08:42.464Z,0.82
2023-05-14T05:11:10.579Z,1.20
2023-05-14T05:13:38.711Z,1.00
2023-05-14T05:16:07.467Z,1.00
2023-05-14T05:18:35.653Z,1.20
2023-05-14T05:21:03.937Z,0.82
2023-05-14T05:23:33.581Z,0.90
2023-05-14T05:26:01.795Z,0.98
2023-05-14T05:28:30.099Z,0.82
2023-05-14T05:30:58.405Z,0.95
2023-05-14T05:33:26.866Z,0.93
2023-05-14T05:35:55.053Z,1.00
2023-05-14T05:38:23.357Z,1.10
2023-05-14T05:40:53.017Z,1.00
2023-05-14T05:43:21.158Z,1.10
2023-05-14T05:45:49.346Z,1.80
2023-05-14T05:48:17.521Z,1.50
2023-05-14T05:50:48.443Z,1.63
2023-05-14T05:53:16.940Z,1.85
2023-05-14T05:55:45.128Z,1.63
2023-05-14T05:58:17.363Z,1.70
2023-05-14T06:00:45.831Z,1.83
2023-05-14T06:03:14.746Z,2.20
2023-05-14T06:05:42.917Z,2.22
2023-05-14T06:08:11.074Z,3.05
2023-05-14T06:10:39.296Z,2.60
2023-05-14T06:13:07.450Z,2.30
2023-05-14T06:15:36.975Z,2.22
2023-05-14T06:18:05.910Z,2.08
2023-05-14T06:20:34.177Z,2.63
2023-05-14T06:23:02.300Z,2.20
2023-05-14T06:25:30.394Z,2.13
2023-05-14T06:27:58.567Z,2.28
2023-05-14T06:30:26.935Z,2.08
2023-05-14T06:32:56.639Z,2.00
2023-05-14T06:35:25.332Z,2.30
2023-05-14T06:37:53.420Z,2.00
2023-05-14T06:40:22.031Z,1.85
2023-05-14T06:42:50.580Z,1.55
2023-05-14T06:45:18.884Z,1.90
2023-05-14T06:47:47.168Z,1.85
2023-05-14T06:50:16.896Z,1.50
2023-05-14T06:52:45.291Z,1.63
2023-05-14T06:55:13.465Z,1.67
2023-05-14T06:57:41.572Z,1.90
2023-05-14T07:00:10.850Z,1.52
2023-05-14T07:02:39.058Z,1.33
2023-05-14T07:05:08.718Z,1.67
2023-05-14T07:07:38.248Z,1.70
2023-05-14T07:10:08.262Z,1.67
2023-05-14T07:12:36.520Z,1.80
2023-05-14T07:15:05.161Z,1.75
2023-05-14T07:17:33.414Z,2.10
2023-05-14T07:20:01.560Z,2.95
2023-05-14T07:22:29.695Z,6.63
2023-05-14T07:24:59.359Z,3.58
2023-05-14T07:27:27.530Z,2.30
2023-05-14T07:29:55.790Z,2.22
2023-05-14T07:32:25.187Z,2.45
2023-05-14T07:34:53.437Z,2.00
2023-05-14T07:37:24.014Z,2.15
2023-05-14T07:39:52.554Z,2.00
2023-05-14T07:42:34.422Z,2.67
2023-05-14T07:45:04.082Z,2.40
2023-05-14T07:47:32.487Z,2.30
2023-05-14T07:50:01.199Z,2.20
2023-05-14T07:52:29.420Z,2.30
2023-05-14T07:54:57.634Z,2.40
2023-05-14T07:57:27.473Z,2.30
2023-05-14T07:59:55.635Z,2.25
2023-05-14T08:02:23.974Z,2.28
2023-05-14T08:04:52.191Z,2.42
2023-05-14T08:07:20.979Z,2.50
2023-05-14T08:09:49.118Z,2.40
2023-05-14T08:12:17.634Z,2.20
2023-05-14T08:14:47.227Z,1.88
2023-05-14T08:17:15.504Z,2.42
2023-05-14T08:19:43.694Z,2.25
2023-05-14T08:22:11.828Z,1.58
2023-05-14T08:24:40.245Z,1.45
2023-05-14T08:27:08.427Z,1.30
2023-05-14T08:29:37.170Z,1.00
2023-05-14T08:32:19.272Z,1.10
2023-05-14T08:34:50.855Z,1.13
2023-05-14T08:37:19.234Z,0.93
2023-05-14T08:39:47.649Z,0.80
2023-05-14T08:42:19.553Z,0.90
2023-05-14T08:44:50.377Z,0.93
2023-05-14T08:47:22.760Z,1.10
2023-05-14T08:49:56.538Z,1.10
2023-05-14T08:52:24.804Z,1.02
2023-05-14T08:54:55.326Z,0.90
2023-05-14T08:57:26.831Z,0.90
2023-05-14T08:59:55.967Z,1.63
2023-05-14T09:02:30.292Z,1.20
2023-05-14T09:05:00.281Z,1.00
2023-05-14T09:07:29.439Z,1.10
2023-05-14T09:09:57.737Z,0.98
2023-05-14T09:12:26.419Z,0.98
2023-05-14T09:14:54.676Z,1.25
2023-05-14T09:17:23.263Z,1.40
2023-05-14T09:19:53.328Z,1.00
2023-05-14T09:22:22.688Z,1.67
2023-05-14T09:25:05.338Z,1.10
2023-05-14T09:27:34.309Z,1.20
2023-05-14T09:30:10.586Z,1.45
2023-05-14T09:32:40.303Z,1.63
2023-05-14T09:35:17.646Z,1.70
2023-05-14T09:37:48.217Z,1.80
2023-05-14T09:40:17.739Z,1.90
2023-05-14T09:42:46.052Z,2.50
2023-05-14T09:45:14.562Z,2.00
2023-05-14T09:47:43.494Z,1.92
2023-05-14T09:50:13.801Z,1.30
2023-05-14T09:52:41.977Z,1.58
2023-05-14T09:55:11.226Z,1.88
2023-05-14T09:57:39.482Z,1.55
2023-05-14T10:00:10.371Z,1.70
2023-05-14T10:02:41.351Z,1.80
2023-05-14T10:05:10.665Z,1.73
2023-05-14T10:07:43.464Z,1.77
2023-05-14T10:10:16.669Z,1.88
2023-05-14T10:12:49.220Z,1.75
2023-05-14T10:15:21.151Z,1.92
2023-05-14T10:17:52.591Z,1.55
2023-05-14T10:20:22.300Z,1.77
2023-05-14T10:22:52.521Z,2.00
2023-05-14T10:25:21.023Z,1.85
2023-05-14T10:27:49.209Z,1.50
2023-05-14T10:30:17.614Z,1.40
2023-05-14T10:32:45.746Z,1.70
2023-05-14T10:35:18.187Z,1.10
2023-05-14T10:37:47.319Z,1.55
2023-05-14T10:40:18.630Z,1.40
2023-05-14T10:42:48.051Z,1.35
2023-05-14T10:45:16.999Z,1.90
2023-05-14T10:47:47.556Z,1.60
2023-05-14T10:50:17.654Z,1.20
2023-05-14T10:52:46.972Z,1.40
2023-05-14T10:55:17.929Z,1.35
2023-05-14T10:57:47.852Z,1.40
2023-05-14T11:00:17.156Z,1.50
2023-05-14T11:02:46.071Z,1.52
2023-05-14T11:05:17.268Z,2.30
2023-05-14T11:07:48.117Z,3.33
2023-05-14T11:10:18.919Z,4.60
2023-05-14T11:12:49.200Z,2.25
2023-05-14T11:15:19.313Z,1.33
2023-05-14T11:17:48.851Z,1.30
2023-05-14T11:20:18.230Z,1.27
2023-05-14T11:22:48.395Z,1.00
2023-05-14T11:25:18.874Z,1.30
2023-05-14T11:27:48.329Z,1.50
2023-05-14T11:30:18.237Z,1.70
2023-05-14T11:32:47.640Z,1.25
2023-05-14T11:35:16.562Z,1.30
2023-05-14T11:37:45.200Z,1.23
2023-05-14T11:40:18.137Z,1.08
2023-05-14T11:42:46.559Z,1.20
2023-05-14T11:45:15.651Z,1.20
2023-05-14T11:47:43.831Z,1.20
2023-05-14T11:50:12.507Z,1.00
2023-05-14T11:52:41.645Z,1.20
2023-05-14T11:55:13.584Z,0.88
2023-05-14T11:57:44.004Z,0.73
2023-05-14T12:00:16.959Z,0.60
2023-05-14T12:02:45.516Z,0.70
2023-05-14T12:05:14.849Z,0.80
2023-05-14T12:07:46.161Z,0.80
2023-05-14T12:10:14.688Z,0.90
2023-05-14T12:12:48.226Z,0.90
2023-05-14T12:15:18.485Z,0.80
2023-05-14T12:17:52.744Z,0.80
2023-05-14T12:20:22.435Z,0.70
2023-05-14T12:22:51.173Z,0.75
2023-05-14T12:25:20.087Z,0.70
2023-05-14T12:27:51.490Z,0.80
2023-05-14T12:30:21.918Z,0.80
2023-05-14T12:32:53.311Z,0.70
2023-05-14T12:35:22.947Z,0.60
2023-05-14T12:37:51.986Z,0.80
2023-05-14T12:40:20.245Z,0.70
2023-05-14T12:42:49.819Z,0.70
2023-05-14T12:45:18.005Z,0.82
2023-05-14T12:47:46.495Z,0.70
2023-05-14T12:50:14.731Z,0.80
2023-05-14T12:52:42.984Z,0.80
2023-05-14T12:55:11.495Z,0.80
2023-05-14T12:57:40.178Z,0.70
2023-05-14T13:00:13.874Z,0.85
2023-05-14T13:02:43.949Z,0.88
2023-05-14T13:05:12.897Z,1.02
2023-05-14T13:07:41.196Z,0.70
2023-05-14T13:10:10.393Z,0.77
2023-05-14T13:12:38.911Z,0.77
2023-05-14T13:15:09.921Z,0.60
2023-05-14T13:17:38.219Z,0.70
2023-05-14T13:20:07.401Z,0.70
2023-05-14T13:22:35.536Z,0.70
2023-05-14T13:25:05.037Z,0.70
2023-05-14T13:27:33.813Z,0.90
2023-05-14T13:30:01.928Z,0.65
2023-05-14T13:32:31.484Z,0.65
2023-05-14T13:34:59.669Z,0.80
2023-05-14T13:37:27.948Z,0.80
2023-05-14T13:39:56.181Z,0.63
2023-05-14T13:42:24.292Z,0.80
2023-05-14T13:44:52.462Z,0.80
2023-05-14T13:47:20.681Z,0.80
2023-05-14T13:49:50.309Z,0.88
2023-05-14T13:52:18.370Z,0.88
2023-05-14T13:54:46.849Z,0.95
2023-05-14T13:57:15.488Z,1.05
2023-05-14T13:59:43.753Z,1.02
2023-05-14T14:02:11.896Z,0.90
2023-05-14T14:04:40.024Z,1.10
2023-05-14T14:07:09.544Z,1.00
2023-05-14T14:09:37.692Z,1.10
2023-05-14T14:12:06.673Z,1.00
2023-05-14T14:14:34.904Z,0.93
2023-05-14T14:17:03.114Z,1.10
2023-05-14T14:19:31.288Z,1.00
2023-05-14T14:21:59.409Z,0.90
2023-05-14T14:24:29.013Z,0.85
2023-05-14T14:26:57.239Z,0.80
2023-05-14T14:29:25.370Z,0.90
2023-05-14T14:31:53.541Z,1.02
2023-05-14T14:34:21.927Z,0.98
2023-05-14T14:36:50.045Z,1.00
2023-05-14T14:39:18.206Z,0.98
2023-05-14T14:41:47.748Z,0.90
2023-05-14T14:44:15.857Z,0.90
2023-05-14T14:46:44.174Z,0.70
2023-05-14T14:49:12.316Z,0.60
2023-05-14T14:51:40.841Z,0.90
2023-05-14T14:54:08.977Z,0.70
2023-05-14T14:56:37.182Z,0.60
2023-05-14T14:59:06.728Z,0.60
2023-05-14T15:01:34.907Z,0.70
2023-05-14T15:04:03.144Z,0.60
2023-05-14T15:06:31.333Z,0.82
2023-05-14T15:08:59.759Z,0.73
2023-05-14T15:11:29.022Z,0.50
2023-05-14T15:13:57.223Z,0.70
2023-05-14T15:16:26.965Z,0.70
2023-05-14T15:18:55.418Z,0.60
2023-05-14T15:21:23.752Z,0.70
2023-05-14T15:23:51.981Z,0.80
2023-05-14T15:26:20.115Z,0.65
2023-05-14T15:28:48.337Z,0.60
2023-05-14T15:31:17.012Z,0.80
2023-05-14T15:33:46.642Z,0.60
2023-05-14T15:36:15.180Z,0.70
2023-05-14T15:38:43.529Z,0.90
2023-05-14T15:41:11.609Z,0.80
2023-05-14T15:43:39.850Z,0.77
2023-05-14T15:46:08.098Z,0.80
2023-05-14T15:48:36.463Z,0.80
2023-05-14T15:51:06.419Z,0.82
2023-05-14T15:53:34.576Z,0.90
2023-05-14T15:56:02.753Z,0.95
2023-05-14T15:58:30.981Z,0.70
2023-05-14T16:00:59.178Z,0.80
2023-05-14T16:03:27.488Z,0.93
2023-05-14T16:05:56.446Z,0.90
2023-05-14T16:08:26.132Z,1.00
2023-05-14T16:10:54.402Z,1.00
2023-05-14T16:13:22.918Z,0.80
2023-05-14T16:15:51.715Z,0.90
2023-05-14T16:18:20.065Z,0.80
2023-05-14T16:20:48.736Z,0.90
2023-05-14T16:23:17.009Z,0.88
2023-05-14T16:25:46.663Z,0.90
2023-05-14T16:28:15.275Z,0.90
2023-05-14T16:30:43.543Z,0.80
2023-05-14T16:33:12.023Z,0.73
2023-05-14T16:35:40.590Z,0.80
2023-05-14T16:38:08.855Z,0.75
2023-05-14T16:40:37.083Z,0.70
2023-05-14T16:43:06.877Z,0.80
2023-05-14T16:48:06.321Z,0.90
2023-05-14T16:50:34.553Z,0.77
2023-05-14T16:53:02.879Z,0.88
2023-05-14T16:55:31.179Z,0.70
2023-05-14T16:57:59.477Z,0.82
2023-05-14T17:00:30.575Z,0.80
2023-05-14T17:02:59.438Z,0.98
2023-05-14T17:05:29.579Z,0.80
2023-05-14T17:07:57.824Z,0.90
2023-05-14T17:10:26.635Z,0.80
2023-05-14T17:12:54.826Z,1.08
2023-05-14T17:15:23.446Z,0.90
2023-05-14T17:17:53.453Z,0.70
2023-05-14T17:20:21.843Z,1.00
2023-05-14T17:22:50.080Z,0.73
2023-05-14T17:25:18.459Z,0.80
2023-05-14T17:27:46.611Z,0.75
2023-05-14T17:30:15.073Z,0.80
2023-05-14T17:32:43.302Z,0.80
2023-05-14T17:35:12.973Z,0.90
2023-05-14T17:37:42.871Z,1.00
2023-05-14T17:40:11.910Z,1.10
2023-05-14T17:42:40.080Z,1.20
2023-05-14T17:45:09.933Z,1.50
2023-05-14T17:47:38.207Z,1.77
2023-05-14T17:50:07.475Z,1.20
2023-05-14T17:52:37.814Z,1.27
2023-05-14T17:55:06.983Z,0.80
2023-05-14T17:57:35.159Z,0.95
2023-05-14T18:00:04.831Z,1.05
2023-05-14T18:02:33.004Z,1.20
2023-05-14T18:05:02.735Z,0.88
2023-05-14T18:07:31.284Z,0.82
2023-05-14T18:10:00.960Z,1.10
2023-05-14T18:12:29.459Z,1.00
2023-05-14T18:14:57.553Z,1.20
2023-05-14T18:17:25.774Z,0.93
2023-05-14T18:19:54.007Z,1.20
2023-05-14T18:22:22.527Z,1.00
2023-05-14T18:24:50.723Z,1.40
2023-05-14T18:27:20.433Z,1.30
2023-05-14T18:29:48.633Z,1.15
2023-05-14T18:32:16.828Z,1.25
2023-05-14T18:34:45.019Z,1.20
2023-05-14T18:37:13.766Z,1.10
2023-05-14T18:39:42.002Z,1.10
2023-05-14T18:42:10.811Z,1.00
2023-05-14T18:44:45.117Z,1.20
2023-05-14T18:47:13.899Z,1.10
2023-05-14T18:49:42.708Z,1.10
2023-05-14T18:52:11.324Z,1.30
2023-05-14T18:54:40.325Z,1.20
2023-05-14T18:57:09.466Z,1.10
2023-05-14T18:59:38.487Z,1.10
2023-05-14T19:02:08.570Z,1.30
2023-05-14T19:04:50.679Z,1.00
2023-05-14T19:07:19.689Z,1.20
2023-05-14T19:09:47.786Z,1.13
2023-05-14T19:12:16.441Z,1.13
2023-05-14T19:14:44.749Z,1.30
2023-05-14T19:17:14.454Z,1.10
2023-05-14T19:19:43.399Z,1.10
2023-05-14T19:22:13.766Z,0.93
2023-05-14T19:24:42.167Z,1.05
2023-05-14T19:27:16.889Z,0.80
2023-05-14T19:29:45.942Z,1.10
2023-05-14T19:32:15.581Z,1.20
2023-05-14T19:34:43.781Z,0.98
2023-05-14T19:37:12.249Z,1.13
2023-05-14T19:39:40.402Z,1.30
2023-05-14T19:42:08.999Z,1.00
2023-05-14T19:44:37.150Z,1.17
2023-05-14T19:47:05.799Z,1.25
2023-05-14T19:49:35.726Z,1.20
2023-05-14T19:52:03.908Z,1.10
2023-05-14T19:54:32.140Z,1.20
2023-05-14T19:57:00.353Z,1.20
2023-05-14T19:59:29.801Z,1.40
2023-05-14T20:01:58.085Z,1.50
2023-05-14T20:04:26.466Z,1.20
2023-05-14T20:06:57.077Z,1.25
2023-05-14T20:09:25.378Z,1.25
2023-05-14T20:11:54.132Z,1.40
2023-05-14T20:14:22.353Z,1.40
2023-05-14T20:16:50.905Z,1.10
2023-05-14T20:19:21.483Z,1.17
2023-05-14T20:21:50.213Z,1.30
2023-05-14T20:24:19.745Z,1.40
2023-05-14T20:26:48.033Z,1.27
2023-05-14T20:29:16.147Z,1.30
2023-05-14T20:31:44.385Z,1.23
2023-05-14T20:34:12.624Z,1.20
2023-05-14T20:36:41.936Z,1.30
2023-05-14T20:39:10.347Z,1.20
2023-05-14T20:41:39.968Z,1.17
2023-05-14T20:44:08.643Z,1.38
2023-05-14T20:46:36.840Z,1.50
2023-05-14T20:49:05.070Z,1.20
2023-05-14T20:51:33.233Z,1.23
2023-05-14T20:54:01.578Z,0.95
2023-05-14T20:56:30.443Z,1.30
2023-05-14T20:58:59.999Z,1.33
2023-05-14T21:01:28.068Z,1.20
2023-05-14T21:03:56.232Z,1.20
2023-05-14T21:06:24.475Z,1.40
2023-05-14T21:08:52.584Z,1.40
2023-05-14T21:11:21.433Z,1.33
2023-05-14T21:13:49.536Z,1.33
2023-05-14T21:16:20.038Z,1.10
2023-05-14T21:18:48.273Z,1.10
2023-05-14T21:21:16.441Z,1.00
2023-05-14T21:23:44.639Z,1.00
2023-05-14T21:26:12.765Z,1.20
2023-05-14T21:28:40.945Z,1.30
2023-05-14T21:31:09.205Z,0.90
2023-05-14T21:33:38.830Z,1.10
2023-05-14T21:36:07.959Z,1.25
2023-05-14T21:38:36.516Z,1.38
2023-05-14T21:41:04.748Z,1.10
2023-05-14T21:43:32.998Z,1.00
2023-05-14T21:46:01.174Z,1.10
2023-05-14T21:48:29.937Z,1.00
2023-05-14T21:50:59.544Z,0.98
2023-05-14T21:53:27.640Z,1.30
2023-05-14T21:55:56.068Z,1.30
2023-05-14T21:58:24.405Z,1.10
2023-05-14T22:00:52.818Z,1.17
2023-05-14T22:03:21.005Z,1.20
2023-05-14T22:05:49.289Z,0.90
2023-05-14T22:08:18.858Z,1.13
2023-05-14T22:10:48.261Z,1.00
2023-05-14T22:13:16.335Z,1.10
2023-05-14T22:15:44.382Z,1.33
2023-05-14T22:18:13.302Z,1.05
2023-05-14T22:20:41.462Z,1.00
2023-05-14T22:23:09.604Z,1.23
2023-05-14T22:25:39.279Z,1.13
2023-05-14T22:28:07.491Z,1.13
2023-05-14T22:30:35.632Z,1.00
2023-05-14T22:33:03.816Z,0.95
2023-05-14T22:35:32.001Z,0.90
2023-05-14T22:38:00.129Z,1.10
2023-05-14T22:40:28.274Z,1.02
2023-05-14T22:42:57.811Z,1.10
2023-05-14T22:45:27.950Z,0.95
2023-05-14T22:47:56.089Z,0.82
2023-05-14T22:50:24.252Z,1.00
2023-05-14T22:52:52.408Z,1.00
2023-05-14T22:55:21.298Z,1.10
2023-05-14T22:57:49.529Z,0.90
2023-05-14T23:00:19.457Z,1.00
2023-05-14T23:02:47.721Z,0.90
2023-05-14T23:05:15.997Z,1.00
2023-05-14T23:07:44.230Z,0.90
2023-05-14T23:10:12.905Z,0.90
2023-05-14T23:12:41.075Z,1.00
2023-05-14T23:15:09.734Z,0.93
2023-05-14T23:17:39.719Z,0.98
2023-05-14T23:20:11.001Z,1.10
2023-05-14T23:22:39.154Z,1.08
2023-05-14T23:25:08.221Z,1.00
2023-05-14T23:27:36.608Z,1.00
2023-05-14T23:30:05.034Z,1.08
2023-05-14T23:32:33.268Z,1.10
2023-05-14T23:35:03.125Z,0.90
2023-05-14T23:37:31.469Z,1.00
2023-05-14T23:39:59.508Z,1.25
2023-05-14T23:42:27.667Z,0.93
2023-05-14T23:44:55.779Z,1.15
2023-05-14T23:47:23.905Z,1.23
2023-05-14T23:49:52.112Z,1.08
2023-05-14T23:52:21.624Z,1.10
2023-05-14T23:54:49.781Z,1.00
2023-05-14T23:57:17.879Z,1.10
2023-05-14T23:59:46.242Z,1.13
